首页
METAR-TAF:

METAR-TAF

机场 :

Centralia Municipal Airport

Centralia, 伊利诺伊州, 美国

纬度: 38-30-53N, 经度: 089-05-32W, 海拔: 163米

当前天气观测

该预报发布于12分钟前的10:35 UTC
风速3节,风向
温度 7°C
湿度 100%
气压 1019 hPa
能見度: 11.3公里
阴天层高于700英尺

METAR: KENL 051035Z AUTO 36003KT 7SM OVC007 07/07 A3009 RMK AO2 T00720067

时间: 05:47 (10:47 UTC)


TAF: 丢失

超过4000个机场的气象观测和天气预报(METAR&TAF报告)。

可查询的气象台以黄色和红色小点在地图上表示。

将鼠标移到小点上方,可查看气象台名称。

然后点击查看天气观测和预报。

如需切换地图:点击带黑十字的绿色按钮放大地图;点击带横线的绿色按钮缩小地图;或者点击绿色箭头查看邻近地区的地图。


METAR-TAF: